sensor_id;sensor_type;location;lat;lon;timestamp;temperature;humidity
10123;DHT22;5101;49.038;8.710;2024-01-27T00:01:32;3.20;99.90
10123;DHT22;5101;49.038;8.710;2024-01-27T00:03:58;3.20;99.90
10123;DHT22;5101;49.038;8.710;2024-01-27T00:06:24;3.10;99.90
10123;DHT22;5101;49.038;8.710;2024-01-27T00:08:49;3.30;99.90
10123;DHT22;5101;49.038;8.710;2024-01-27T00:11:15;3.10;99.90
10123;DHT22;5101;49.038;8.710;2024-01-27T00:13:40;3.10;99.90
10123;DHT22;5101;49.038;8.710;2024-01-27T00:16:06;3.00;99.90
10123;DHT22;5101;49.038;8.710;2024-01-27T00:18:32;3.00;99.90
10123;DHT22;5101;49.038;8.710;2024-01-27T00:20:57;3.00;99.90
10123;DHT22;5101;49.038;8.710;2024-01-27T00:23:23;3.00;99.90
10123;DHT22;5101;49.038;8.710;2024-01-27T00:25:48;3.00;99.90
10123;DHT22;5101;49.038;8.710;2024-01-27T00:28:14;2.90;99.90
10123;DHT22;5101;49.038;8.710;2024-01-27T00:30:39;2.90;99.90
10123;DHT22;5101;49.038;8.710;2024-01-27T00:33:05;3.10;99.90
10123;DHT22;5101;49.038;8.710;2024-01-27T00:35:30;2.90;99.90
10123;DHT22;5101;49.038;8.710;2024-01-27T00:37:56;2.80;99.90
10123;DHT22;5101;49.038;8.710;2024-01-27T00:42:47;2.80;99.90
10123;DHT22;5101;49.038;8.710;2024-01-27T00:45:13;2.80;99.90
10123;DHT22;5101;49.038;8.710;2024-01-27T00:47:38;2.80;99.90
10123;DHT22;5101;49.038;8.710;2024-01-27T00:50:04;2.80;99.90
10123;DHT22;5101;49.038;8.710;2024-01-27T00:52:31;2.70;99.90
10123;DHT22;5101;49.038;8.710;2024-01-27T00:54:56;2.60;99.90
10123;DHT22;5101;49.038;8.710;2024-01-27T00:57:22;2.70;99.90
10123;DHT22;5101;49.038;8.710;2024-01-27T00:59:47;2.70;99.90
10123;DHT22;5101;49.038;8.710;2024-01-27T01:02:13;2.70;99.90
10123;DHT22;5101;49.038;8.710;2024-01-27T01:04:38;2.70;99.90
10123;DHT22;5101;49.038;8.710;2024-01-27T01:07:04;2.60;99.90
10123;DHT22;5101;49.038;8.710;2024-01-27T01:09:29;2.60;99.90
10123;DHT22;5101;49.038;8.710;2024-01-27T01:11:55;2.50;99.90
10123;DHT22;5101;49.038;8.710;2024-01-27T01:14:20;2.50;99.90
10123;DHT22;5101;49.038;8.710;2024-01-27T01:16:46;2.50;99.90
10123;DHT22;5101;49.038;8.710;2024-01-27T01:19:11;2.40;99.90
10123;DHT22;5101;49.038;8.710;2024-01-27T01:21:37;2.40;99.90
10123;DHT22;5101;49.038;8.710;2024-01-27T01:24:02;2.40;99.90
10123;DHT22;5101;49.038;8.710;2024-01-27T01:26:28;2.30;99.90
10123;DHT22;5101;49.038;8.710;2024-01-27T01:28:53;2.40;99.90
10123;DHT22;5101;49.038;8.710;2024-01-27T01:31:18;2.40;99.90
10123;DHT22;5101;49.038;8.710;2024-01-27T01:33:44;2.30;99.90
10123;DHT22;5101;49.038;8.710;2024-01-27T01:36:10;2.30;99.90
10123;DHT22;5101;49.038;8.710;2024-01-27T01:38:35;2.30;99.90
10123;DHT22;5101;49.038;8.710;2024-01-27T01:41:01;2.30;99.90
10123;DHT22;5101;49.038;8.710;2024-01-27T01:43:26;2.20;99.90
10123;DHT22;5101;49.038;8.710;2024-01-27T01:45:52;2.20;99.90
10123;DHT22;5101;49.038;8.710;2024-01-27T01:48:19;2.10;99.90
10123;DHT22;5101;49.038;8.710;2024-01-27T01:50:45;2.10;99.90
10123;DHT22;5101;49.038;8.710;2024-01-27T01:53:12;2.10;99.90
10123;DHT22;5101;49.038;8.710;2024-01-27T01:55:38;2.10;99.90
10123;DHT22;5101;49.038;8.710;2024-01-27T01:58:04;2.10;99.90
10123;DHT22;5101;49.038;8.710;2024-01-27T02:00:30;2.10;99.90
10123;DHT22;5101;49.038;8.710;2024-01-27T02:02:55;2.10;99.90
10123;DHT22;5101;49.038;8.710;2024-01-27T02:05:21;2.00;99.90
10123;DHT22;5101;49.038;8.710;2024-01-27T02:07:46;2.00;99.90
10123;DHT22;5101;49.038;8.710;2024-01-27T02:10:16;2.00;99.90
10123;DHT22;5101;49.038;8.710;2024-01-27T02:12:42;2.00;99.90
10123;DHT22;5101;49.038;8.710;2024-01-27T02:15:12;1.90;99.90
10123;DHT22;5101;49.038;8.710;2024-01-27T02:17:38;1.90;99.90
10123;DHT22;5101;49.038;8.710;2024-01-27T02:20:05;2.00;99.90
10123;DHT22;5101;49.038;8.710;2024-01-27T02:22:32;1.90;99.90
10123;DHT22;5101;49.038;8.710;2024-01-27T02:24:58;1.90;99.90
10123;DHT22;5101;49.038;8.710;2024-01-27T02:27:23;1.90;99.90
10123;DHT22;5101;49.038;8.710;2024-01-27T02:29:49;1.90;99.90
10123;DHT22;5101;49.038;8.710;2024-01-27T02:32:14;1.90;99.90
10123;DHT22;5101;49.038;8.710;2024-01-27T02:34:40;1.90;99.90
10123;DHT22;5101;49.038;8.710;2024-01-27T02:37:05;2.00;99.90
10123;DHT22;5101;49.038;8.710;2024-01-27T02:39:31;1.90;99.90
10123;DHT22;5101;49.038;8.710;2024-01-27T02:41:56;1.90;99.90
10123;DHT22;5101;49.038;8.710;2024-01-27T02:44:22;1.90;99.90
10123;DHT22;5101;49.038;8.710;2024-01-27T02:46:48;1.90;99.90
10123;DHT22;5101;49.038;8.710;2024-01-27T02:49:13;1.90;99.90
10123;DHT22;5101;49.038;8.710;2024-01-27T02:51:39;1.90;99.90
10123;DHT22;5101;49.038;8.710;2024-01-27T02:54:04;1.90;99.90
10123;DHT22;5101;49.038;8.710;2024-01-27T02:56:30;1.90;99.90
10123;DHT22;5101;49.038;8.710;2024-01-27T02:58:55;1.90;99.90
10123;DHT22;5101;49.038;8.710;2024-01-27T03:01:21;1.90;99.90
10123;DHT22;5101;49.038;8.710;2024-01-27T03:03:46;1.90;99.90
10123;DHT22;5101;49.038;8.710;2024-01-27T03:06:12;1.80;99.90
10123;DHT22;5101;49.038;8.710;2024-01-27T03:08:37;1.80;99.90
10123;DHT22;5101;49.038;8.710;2024-01-27T03:11:03;1.80;99.90
10123;DHT22;5101;49.038;8.710;2024-01-27T03:13:28;1.80;99.90
10123;DHT22;5101;49.038;8.710;2024-01-27T03:15:54;1.80;99.90
10123;DHT22;5101;49.038;8.710;2024-01-27T03:18:19;1.70;99.90
10123;DHT22;5101;49.038;8.710;2024-01-27T03:20:45;1.70;99.90
10123;DHT22;5101;49.038;8.710;2024-01-27T03:23:10;1.70;99.90
10123;DHT22;5101;49.038;8.710;2024-01-27T03:25:36;1.70;99.90
10123;DHT22;5101;49.038;8.710;2024-01-27T03:28:01;1.70;99.90
10123;DHT22;5101;49.038;8.710;2024-01-27T03:30:27;1.70;99.90
10123;DHT22;5101;49.038;8.710;2024-01-27T03:32:52;1.70;99.90
10123;DHT22;5101;49.038;8.710;2024-01-27T03:35:18;1.70;99.90
10123;DHT22;5101;49.038;8.710;2024-01-27T03:37:43;1.70;99.90
10123;DHT22;5101;49.038;8.710;2024-01-27T03:40:11;1.70;99.90
10123;DHT22;5101;49.038;8.710;2024-01-27T03:42:36;1.70;99.90
10123;DHT22;5101;49.038;8.710;2024-01-27T03:45:02;1.60;99.90
10123;DHT22;5101;49.038;8.710;2024-01-27T03:47:28;1.60;99.90
10123;DHT22;5101;49.038;8.710;2024-01-27T03:49:53;1.60;99.90
10123;DHT22;5101;49.038;8.710;2024-01-27T03:52:19;1.60;99.90
10123;DHT22;5101;49.038;8.710;2024-01-27T03:54:45;1.60;99.90
10123;DHT22;5101;49.038;8.710;2024-01-27T03:57:11;1.50;99.90
10123;DHT22;5101;49.038;8.710;2024-01-27T03:59:36;1.50;99.90
10123;DHT22;5101;49.038;8.710;2024-01-27T04:02:02;1.50;99.90
10123;DHT22;5101;49.038;8.710;2024-01-27T04:04:27;1.50;99.90
10123;DHT22;5101;49.038;8.710;2024-01-27T04:06:53;1.40;99.90
10123;DHT22;5101;49.038;8.710;2024-01-27T04:09:18;1.50;99.90
10123;DHT22;5101;49.038;8.710;2024-01-27T04:11:44;1.50;99.90
10123;DHT22;5101;49.038;8.710;2024-01-27T04:14:09;1.50;99.90
10123;DHT22;5101;49.038;8.710;2024-01-27T04:16:35;1.50;99.90
10123;DHT22;5101;49.038;8.710;2024-01-27T04:19:00;1.50;99.90
10123;DHT22;5101;49.038;8.710;2024-01-27T04:21:26;1.50;99.90
10123;DHT22;5101;49.038;8.710;2024-01-27T04:23:51;1.50;99.90
10123;DHT22;5101;49.038;8.710;2024-01-27T04:26:17;1.40;99.90
10123;DHT22;5101;49.038;8.710;2024-01-27T04:28:42;1.40;99.90
10123;DHT22;5101;49.038;8.710;2024-01-27T04:31:08;1.40;99.90
10123;DHT22;5101;49.038;8.710;2024-01-27T04:33:33;1.40;99.90
10123;DHT22;5101;49.038;8.710;2024-01-27T04:35:59;1.40;99.90
10123;DHT22;5101;49.038;8.710;2024-01-27T04:38:24;1.40;99.90
10123;DHT22;5101;49.038;8.710;2024-01-27T04:40:51;1.40;99.90
10123;DHT22;5101;49.038;8.710;2024-01-27T04:43:16;1.30;99.90
10123;DHT22;5101;49.038;8.710;2024-01-27T04:45:42;1.30;99.90
10123;DHT22;5101;49.038;8.710;2024-01-27T04:48:08;1.20;99.90
10123;DHT22;5101;49.038;8.710;2024-01-27T04:50:34;1.20;99.90
10123;DHT22;5101;49.038;8.710;2024-01-27T04:52:59;1.20;99.90
10123;DHT22;5101;49.038;8.710;2024-01-27T04:55:25;1.20;99.90
10123;DHT22;5101;49.038;8.710;2024-01-27T04:57:50;1.20;99.90
10123;DHT22;5101;49.038;8.710;2024-01-27T05:00:16;1.20;99.90
10123;DHT22;5101;49.038;8.710;2024-01-27T05:02:42;1.20;99.90
10123;DHT22;5101;49.038;8.710;2024-01-27T05:05:08;1.20;99.90
10123;DHT22;5101;49.038;8.710;2024-01-27T05:07:34;1.10;99.90
10123;DHT22;5101;49.038;8.710;2024-01-27T05:09:59;1.00;99.90
10123;DHT22;5101;49.038;8.710;2024-01-27T05:12:25;1.00;99.90
10123;DHT22;5101;49.038;8.710;2024-01-27T05:14:50;1.00;99.90
10123;DHT22;5101;49.038;8.710;2024-01-27T05:17:16;1.10;99.90
10123;DHT22;5101;49.038;8.710;2024-01-27T05:19:41;1.10;99.90
10123;DHT22;5101;49.038;8.710;2024-01-27T05:22:07;1.00;99.90
10123;DHT22;5101;49.038;8.710;2024-01-27T05:24:32;1.00;99.90
10123;DHT22;5101;49.038;8.710;2024-01-27T05:26:58;1.00;99.90
10123;DHT22;5101;49.038;8.710;2024-01-27T05:29:24;1.00;99.90
10123;DHT22;5101;49.038;8.710;2024-01-27T05:31:49;1.00;99.90
10123;DHT22;5101;49.038;8.710;2024-01-27T05:34:15;1.00;99.90
10123;DHT22;5101;49.038;8.710;2024-01-27T05:36:40;1.10;99.90
10123;DHT22;5101;49.038;8.710;2024-01-27T05:39:06;1.00;99.90
10123;DHT22;5101;49.038;8.710;2024-01-27T05:41:32;1.00;99.90
10123;DHT22;5101;49.038;8.710;2024-01-27T05:43:58;1.00;99.90
10123;DHT22;5101;49.038;8.710;2024-01-27T05:46:24;1.00;99.90
10123;DHT22;5101;49.038;8.710;2024-01-27T05:48:50;1.00;99.90
10123;DHT22;5101;49.038;8.710;2024-01-27T05:51:19;1.00;99.90
10123;DHT22;5101;49.038;8.710;2024-01-27T05:53:44;1.00;99.90
10123;DHT22;5101;49.038;8.710;2024-01-27T05:56:10;1.00;99.90
10123;DHT22;5101;49.038;8.710;2024-01-27T05:58:35;0.90;99.90
10123;DHT22;5101;49.038;8.710;2024-01-27T06:01:01;0.90;99.90
10123;DHT22;5101;49.038;8.710;2024-01-27T06:03:26;0.90;99.90
10123;DHT22;5101;49.038;8.710;2024-01-27T06:05:51;0.90;99.90
10123;DHT22;5101;49.038;8.710;2024-01-27T06:08:17;0.90;99.90
10123;DHT22;5101;49.038;8.710;2024-01-27T06:10:45;0.90;99.90
10123;DHT22;5101;49.038;8.710;2024-01-27T06:13:11;0.90;99.90
10123;DHT22;5101;49.038;8.710;2024-01-27T06:15:36;0.80;99.90
10123;DHT22;5101;49.038;8.710;2024-01-27T06:18:01;0.90;99.90
10123;DHT22;5101;49.038;8.710;2024-01-27T06:20:27;0.90;99.90
10123;DHT22;5101;49.038;8.710;2024-01-27T06:22:53;0.90;99.90
10123;DHT22;5101;49.038;8.710;2024-01-27T06:25:20;0.90;99.90
10123;DHT22;5101;49.038;8.710;2024-01-27T06:27:45;0.90;99.90
10123;DHT22;5101;49.038;8.710;2024-01-27T06:30:11;0.90;99.90
10123;DHT22;5101;49.038;8.710;2024-01-27T06:32:37;0.80;99.90
10123;DHT22;5101;49.038;8.710;2024-01-27T06:35:03;0.80;99.90
10123;DHT22;5101;49.038;8.710;2024-01-27T06:37:29;0.80;99.90
10123;DHT22;5101;49.038;8.710;2024-01-27T06:39:55;0.80;99.90
10123;DHT22;5101;49.038;8.710;2024-01-27T06:42:20;0.80;99.90
10123;DHT22;5101;49.038;8.710;2024-01-27T06:44:46;0.80;99.90
10123;DHT22;5101;49.038;8.710;2024-01-27T06:47:11;0.80;99.90
10123;DHT22;5101;49.038;8.710;2024-01-27T06:49:37;0.70;99.90
10123;DHT22;5101;49.038;8.710;2024-01-27T06:52:03;0.70;99.90
10123;DHT22;5101;49.038;8.710;2024-01-27T06:54:29;0.70;99.90
10123;DHT22;5101;49.038;8.710;2024-01-27T06:56:54;0.70;99.90
10123;DHT22;5101;49.038;8.710;2024-01-27T06:59:19;0.70;99.90
10123;DHT22;5101;49.038;8.710;2024-01-27T07:01:46;0.70;99.90
10123;DHT22;5101;49.038;8.710;2024-01-27T07:04:16;0.70;99.90
10123;DHT22;5101;49.038;8.710;2024-01-27T07:06:42;0.70;99.90
10123;DHT22;5101;49.038;8.710;2024-01-27T07:09:08;0.60;99.90
10123;DHT22;5101;49.038;8.710;2024-01-27T07:11:37;0.60;99.90
10123;DHT22;5101;49.038;8.710;2024-01-27T07:14:04;0.60;99.90
10123;DHT22;5101;49.038;8.710;2024-01-27T07:16:30;0.70;99.90
10123;DHT22;5101;49.038;8.710;2024-01-27T07:18:55;0.60;99.90
10123;DHT22;5101;49.038;8.710;2024-01-27T07:21:21;0.50;99.90
10123;DHT22;5101;49.038;8.710;2024-01-27T07:23:46;0.40;99.90
10123;DHT22;5101;49.038;8.710;2024-01-27T07:26:13;0.50;99.90
10123;DHT22;5101;49.038;8.710;2024-01-27T07:28:39;0.50;99.90
10123;DHT22;5101;49.038;8.710;2024-01-27T07:31:07;0.50;99.90
10123;DHT22;5101;49.038;8.710;2024-01-27T07:33:33;0.60;99.90
10123;DHT22;5101;49.038;8.710;2024-01-27T07:35:58;0.60;99.90
10123;DHT22;5101;49.038;8.710;2024-01-27T07:38:24;0.60;99.90
10123;DHT22;5101;49.038;8.710;2024-01-27T07:40:49;0.70;99.90
10123;DHT22;5101;49.038;8.710;2024-01-27T07:43:15;0.70;99.90
10123;DHT22;5101;49.038;8.710;2024-01-27T07:45:40;0.70;99.90
10123;DHT22;5101;49.038;8.710;2024-01-27T07:48:06;0.70;99.90
10123;DHT22;5101;49.038;8.710;2024-01-27T07:50:32;0.80;99.90
10123;DHT22;5101;49.038;8.710;2024-01-27T07:52:58;0.80;99.90
10123;DHT22;5101;49.038;8.710;2024-01-27T07:55:24;0.80;99.90
10123;DHT22;5101;49.038;8.710;2024-01-27T07:57:49;0.80;99.90
10123;DHT22;5101;49.038;8.710;2024-01-27T08:00:15;0.80;99.90
10123;DHT22;5101;49.038;8.710;2024-01-27T08:02:40;0.90;99.90
10123;DHT22;5101;49.038;8.710;2024-01-27T08:05:06;0.90;99.90
10123;DHT22;5101;49.038;8.710;2024-01-27T08:07:32;0.90;99.90
10123;DHT22;5101;49.038;8.710;2024-01-27T08:09:57;0.90;99.90
10123;DHT22;5101;49.038;8.710;2024-01-27T08:12:23;1.00;99.90
10123;DHT22;5101;49.038;8.710;2024-01-27T08:14:48;1.00;99.90
10123;DHT22;5101;49.038;8.710;2024-01-27T08:17:14;1.00;99.90
10123;DHT22;5101;49.038;8.710;2024-01-27T08:19:40;1.00;99.90
10123;DHT22;5101;49.038;8.710;2024-01-27T08:22:05;1.00;99.90
10123;DHT22;5101;49.038;8.710;2024-01-27T08:24:31;1.10;99.90
10123;DHT22;5101;49.038;8.710;2024-01-27T08:26:57;1.10;99.90
10123;DHT22;5101;49.038;8.710;2024-01-27T08:29:23;1.20;99.90
10123;DHT22;5101;49.038;8.710;2024-01-27T08:31:49;1.20;99.90
10123;DHT22;5101;49.038;8.710;2024-01-27T08:34:14;1.40;99.90
10123;DHT22;5101;49.038;8.710;2024-01-27T08:36:40;1.50;99.90
10123;DHT22;5101;49.038;8.710;2024-01-27T08:39:05;1.60;99.90
10123;DHT22;5101;49.038;8.710;2024-01-27T08:41:33;1.90;99.90
10123;DHT22;5101;49.038;8.710;2024-01-27T08:43:58;2.00;99.90
10123;DHT22;5101;49.038;8.710;2024-01-27T08:46:24;2.30;99.90
10123;DHT22;5101;49.038;8.710;2024-01-27T08:48:49;2.70;99.90
10123;DHT22;5101;49.038;8.710;2024-01-27T08:51:15;2.90;99.90
10123;DHT22;5101;49.038;8.710;2024-01-27T08:53:42;3.30;99.90
10123;DHT22;5101;49.038;8.710;2024-01-27T08:56:17;3.80;99.90
10123;DHT22;5101;49.038;8.710;2024-01-27T08:58:46;4.00;99.90
10123;DHT22;5101;49.038;8.710;2024-01-27T09:01:13;4.50;99.90
10123;DHT22;5101;49.038;8.710;2024-01-27T09:03:40;4.80;99.90
10123;DHT22;5101;49.038;8.710;2024-01-27T09:06:06;5.20;99.90
10123;DHT22;5101;49.038;8.710;2024-01-27T09:08:33;5.60;99.90
10123;DHT22;5101;49.038;8.710;2024-01-27T09:11:00;6.10;99.90
10123;DHT22;5101;49.038;8.710;2024-01-27T09:13:26;6.70;99.90
10123;DHT22;5101;49.038;8.710;2024-01-27T09:15:52;7.20;99.90
10123;DHT22;5101;49.038;8.710;2024-01-27T09:18:17;7.70;99.90
10123;DHT22;5101;49.038;8.710;2024-01-27T09:20:43;8.30;99.90
10123;DHT22;5101;49.038;8.710;2024-01-27T09:23:08;8.80;99.90
10123;DHT22;5101;49.038;8.710;2024-01-27T09:25:34;9.20;99.90
10123;DHT22;5101;49.038;8.710;2024-01-27T09:27:59;9.70;98.20
10123;DHT22;5101;49.038;8.710;2024-01-27T09:30:28;10.10;96.20
10123;DHT22;5101;49.038;8.710;2024-01-27T09:32:54;10.60;94.60
10123;DHT22;5101;49.038;8.710;2024-01-27T09:35:19;11.00;93.20
10123;DHT22;5101;49.038;8.710;2024-01-27T09:37:45;11.30;90.90
10123;DHT22;5101;49.038;8.710;2024-01-27T09:40:12;11.60;89.50
10123;DHT22;5101;49.038;8.710;2024-01-27T09:42:38;11.90;87.70
10123;DHT22;5101;49.038;8.710;2024-01-27T09:45:05;12.40;87.30
10123;DHT22;5101;49.038;8.710;2024-01-27T09:47:31;12.80;78.60
10123;DHT22;5101;49.038;8.710;2024-01-27T09:49:56;13.10;78.60
10123;DHT22;5101;49.038;8.710;2024-01-27T09:52:22;13.30;78.10
10123;DHT22;5101;49.038;8.710;2024-01-27T09:54:48;13.60;71.70
10123;DHT22;5101;49.038;8.710;2024-01-27T09:57:14;13.90;73.40
10123;DHT22;5101;49.038;8.710;2024-01-27T09:59:43;13.90;73.20
10123;DHT22;5101;49.038;8.710;2024-01-27T10:02:11;13.70;73.10
10123;DHT22;5101;49.038;8.710;2024-01-27T10:04:40;14.00;72.70
10123;DHT22;5101;49.038;8.710;2024-01-27T10:07:06;14.20;67.80
10123;DHT22;5101;49.038;8.710;2024-01-27T10:09:31;14.40;68.20
10123;DHT22;5101;49.038;8.710;2024-01-27T10:11:58;14.50;67.90
10123;DHT22;5101;49.038;8.710;2024-01-27T10:14:25;14.80;67.70
10123;DHT22;5101;49.038;8.710;2024-01-27T10:16:51;15.10;67.10
10123;DHT22;5101;49.038;8.710;2024-01-27T10:19:20;15.30;66.30
10123;DHT22;5101;49.038;8.710;2024-01-27T10:21:47;15.10;60.00
10123;DHT22;5101;49.038;8.710;2024-01-27T10:24:12;14.50;63.00
10123;DHT22;5101;49.038;8.710;2024-01-27T10:26:38;14.00;65.40
10123;DHT22;5101;49.038;8.710;2024-01-27T10:29:04;13.90;67.30
10123;DHT22;5101;49.038;8.710;2024-01-27T10:31:31;14.00;66.70
10123;DHT22;5101;49.038;8.710;2024-01-27T10:33:57;14.10;66.40
10123;DHT22;5101;49.038;8.710;2024-01-27T10:36:26;14.30;66.10
10123;DHT22;5101;49.038;8.710;2024-01-27T10:38:51;14.70;65.70
10123;DHT22;5101;49.038;8.710;2024-01-27T10:41:22;14.70;65.40
10123;DHT22;5101;49.038;8.710;2024-01-27T10:43:50;14.50;65.30
10123;DHT22;5101;49.038;8.710;2024-01-27T10:46:21;14.50;65.40
10123;DHT22;5101;49.038;8.710;2024-01-27T10:48:51;14.40;65.00
10123;DHT22;5101;49.038;8.710;2024-01-27T10:51:32;14.70;65.10
10123;DHT22;5101;49.038;8.710;2024-01-27T10:54:01;14.60;65.30
10123;DHT22;5101;49.038;8.710;2024-01-27T10:56:29;14.80;64.70
10123;DHT22;5101;49.038;8.710;2024-01-27T10:58:58;14.60;64.40
10123;DHT22;5101;49.038;8.710;2024-01-27T11:01:24;14.70;64.10
10123;DHT22;5101;49.038;8.710;2024-01-27T11:03:52;14.80;63.70
10123;DHT22;5101;49.038;8.710;2024-01-27T11:06:22;15.10;63.30
10123;DHT22;5101;49.038;8.710;2024-01-27T11:08:49;15.30;62.10
10123;DHT22;5101;49.038;8.710;2024-01-27T11:11:16;15.10;62.20
10123;DHT22;5101;49.038;8.710;2024-01-27T11:13:42;15.30;61.40
10123;DHT22;5101;49.038;8.710;2024-01-27T11:16:15;15.50;60.00
10123;DHT22;5101;49.038;8.710;2024-01-27T11:18:42;15.60;57.80
10123;DHT22;5101;49.038;8.710;2024-01-27T11:21:15;15.30;57.40
10123;DHT22;5101;49.038;8.710;2024-01-27T11:23:41;15.00;57.10
10123;DHT22;5101;49.038;8.710;2024-01-27T11:26:08;14.40;58.20
10123;DHT22;5101;49.038;8.710;2024-01-27T11:28:35;14.60;59.30
10123;DHT22;5101;49.038;8.710;2024-01-27T11:31:05;14.60;60.10
10123;DHT22;5101;49.038;8.710;2024-01-27T11:33:30;14.70;60.20
10123;DHT22;5101;49.038;8.710;2024-01-27T11:36:03;14.80;59.30
10123;DHT22;5101;49.038;8.710;2024-01-27T11:38:30;14.60;58.90
10123;DHT22;5101;49.038;8.710;2024-01-27T11:40:56;14.50;58.00
10123;DHT22;5101;49.038;8.710;2024-01-27T11:43:21;14.60;57.40
10123;DHT22;5101;49.038;8.710;2024-01-27T11:46:00;14.50;56.90
10123;DHT22;5101;49.038;8.710;2024-01-27T11:48:26;14.60;56.50
10123;DHT22;5101;49.038;8.710;2024-01-27T11:51:10;14.60;56.10
10123;DHT22;5101;49.038;8.710;2024-01-27T11:53:35;14.30;56.80
10123;DHT22;5101;49.038;8.710;2024-01-27T11:56:02;14.40;57.30
10123;DHT22;5101;49.038;8.710;2024-01-27T11:58:29;14.40;57.70
10123;DHT22;5101;49.038;8.710;2024-01-27T12:00:55;14.00;57.80
10123;DHT22;5101;49.038;8.710;2024-01-27T12:03:21;13.90;58.40
10123;DHT22;5101;49.038;8.710;2024-01-27T12:05:47;13.90;59.20
10123;DHT22;5101;49.038;8.710;2024-01-27T12:08:13;13.60;59.20
10123;DHT22;5101;49.038;8.710;2024-01-27T12:10:38;13.70;59.90
10123;DHT22;5101;49.038;8.710;2024-01-27T12:13:04;13.80;60.20
10123;DHT22;5101;49.038;8.710;2024-01-27T12:15:29;13.80;60.00
10123;DHT22;5101;49.038;8.710;2024-01-27T12:17:55;13.80;59.40
10123;DHT22;5101;49.038;8.710;2024-01-27T12:20:22;13.70;58.00
10123;DHT22;5101;49.038;8.710;2024-01-27T12:22:48;13.60;59.20
10123;DHT22;5101;49.038;8.710;2024-01-27T12:25:16;12.90;61.00
10123;DHT22;5101;49.038;8.710;2024-01-27T12:27:43;12.90;61.60
10123;DHT22;5101;49.038;8.710;2024-01-27T12:30:09;12.70;62.50
10123;DHT22;5101;49.038;8.710;2024-01-27T12:32:35;12.40;63.70
10123;DHT22;5101;49.038;8.710;2024-01-27T12:35:05;12.60;64.10
10123;DHT22;5101;49.038;8.710;2024-01-27T12:37:31;12.90;64.30
10123;DHT22;5101;49.038;8.710;2024-01-27T12:39:56;12.80;63.60
10123;DHT22;5101;49.038;8.710;2024-01-27T12:42:22;12.70;63.60
10123;DHT22;5101;49.038;8.710;2024-01-27T12:44:48;12.60;63.50
10123;DHT22;5101;49.038;8.710;2024-01-27T12:47:13;12.30;63.80
10123;DHT22;5101;49.038;8.710;2024-01-27T12:49:42;12.20;63.90
10123;DHT22;5101;49.038;8.710;2024-01-27T12:52:07;12.20;64.10
10123;DHT22;5101;49.038;8.710;2024-01-27T12:54:33;12.40;64.30
10123;DHT22;5101;49.038;8.710;2024-01-27T12:56:59;12.50;64.40
10123;DHT22;5101;49.038;8.710;2024-01-27T12:59:26;12.60;64.50
10123;DHT22;5101;49.038;8.710;2024-01-27T13:01:52;12.60;64.10
10123;DHT22;5101;49.038;8.710;2024-01-27T13:04:18;12.60;64.20
10123;DHT22;5101;49.038;8.710;2024-01-27T13:06:43;12.60;64.50
10123;DHT22;5101;49.038;8.710;2024-01-27T13:09:10;12.60;64.90
10123;DHT22;5101;49.038;8.710;2024-01-27T13:11:39;12.60;65.00
10123;DHT22;5101;49.038;8.710;2024-01-27T13:14:04;12.60;65.00
10123;DHT22;5101;49.038;8.710;2024-01-27T13:16:30;12.60;64.50
10123;DHT22;5101;49.038;8.710;2024-01-27T13:18:56;12.60;64.30
10123;DHT22;5101;49.038;8.710;2024-01-27T13:21:21;12.30;64.40
10123;DHT22;5101;49.038;8.710;2024-01-27T13:23:47;12.40;64.70
10123;DHT22;5101;49.038;8.710;2024-01-27T13:26:12;12.10;64.90
10123;DHT22;5101;49.038;8.710;2024-01-27T13:28:38;11.90;64.40
10123;DHT22;5101;49.038;8.710;2024-01-27T13:31:04;11.90;64.20
10123;DHT22;5101;49.038;8.710;2024-01-27T13:33:30;12.00;64.00
10123;DHT22;5101;49.038;8.710;2024-01-27T13:35:55;11.90;64.70
10123;DHT22;5101;49.038;8.710;2024-01-27T13:38:21;11.80;64.70
10123;DHT22;5101;49.038;8.710;2024-01-27T13:40:49;11.80;64.30
10123;DHT22;5101;49.038;8.710;2024-01-27T13:43:15;12.00;64.30
10123;DHT22;5101;49.038;8.710;2024-01-27T13:45:41;11.80;64.10
10123;DHT22;5101;49.038;8.710;2024-01-27T13:48:07;11.60;64.50
10123;DHT22;5101;49.038;8.710;2024-01-27T13:50:32;11.60;64.50
10123;DHT22;5101;49.038;8.710;2024-01-27T13:52:58;11.60;64.70
10123;DHT22;5101;49.038;8.710;2024-01-27T13:55:29;11.60;64.10
10123;DHT22;5101;49.038;8.710;2024-01-27T13:57:58;11.50;63.20
10123;DHT22;5101;49.038;8.710;2024-01-27T14:00:23;11.50;62.70
10123;DHT22;5101;49.038;8.710;2024-01-27T14:02:49;11.50;62.80
10123;DHT22;5101;49.038;8.710;2024-01-27T14:05:14;11.50;62.60
10123;DHT22;5101;49.038;8.710;2024-01-27T14:07:40;11.50;62.90
10123;DHT22;5101;49.038;8.710;2024-01-27T14:10:06;11.60;63.40
10123;DHT22;5101;49.038;8.710;2024-01-27T14:12:31;11.70;64.00
10123;DHT22;5101;49.038;8.710;2024-01-27T14:15:04;11.70;63.30
10123;DHT22;5101;49.038;8.710;2024-01-27T14:17:34;11.70;63.40
10123;DHT22;5101;49.038;8.710;2024-01-27T14:20:01;11.60;62.40
10123;DHT22;5101;49.038;8.710;2024-01-27T14:22:26;11.60;61.90
10123;DHT22;5101;49.038;8.710;2024-01-27T14:24:52;11.60;61.80
10123;DHT22;5101;49.038;8.710;2024-01-27T14:27:18;11.60;62.10
10123;DHT22;5101;49.038;8.710;2024-01-27T14:29:53;11.50;61.40
10123;DHT22;5101;49.038;8.710;2024-01-27T14:32:19;11.50;61.10
10123;DHT22;5101;49.038;8.710;2024-01-27T14:34:45;11.50;60.90
10123;DHT22;5101;49.038;8.710;2024-01-27T14:37:10;11.50;62.20
10123;DHT22;5101;49.038;8.710;2024-01-27T14:39:36;11.60;63.30
10123;DHT22;5101;49.038;8.710;2024-01-27T14:42:02;11.60;62.20
10123;DHT22;5101;49.038;8.710;2024-01-27T14:44:30;11.50;61.40
10123;DHT22;5101;49.038;8.710;2024-01-27T14:46:55;11.40;61.20
10123;DHT22;5101;49.038;8.710;2024-01-27T14:49:21;11.40;61.30
10123;DHT22;5101;49.038;8.710;2024-01-27T14:51:47;11.30;61.80
10123;DHT22;5101;49.038;8.710;2024-01-27T14:54:13;11.20;61.90
10123;DHT22;5101;49.038;8.710;2024-01-27T14:56:38;11.10;62.00
10123;DHT22;5101;49.038;8.710;2024-01-27T14:59:04;11.00;62.00
10123;DHT22;5101;49.038;8.710;2024-01-27T15:01:32;10.90;62.20
10123;DHT22;5101;49.038;8.710;2024-01-27T15:03:58;10.90;62.70
10123;DHT22;5101;49.038;8.710;2024-01-27T15:06:26;10.80;62.90
10123;DHT22;5101;49.038;8.710;2024-01-27T15:08:52;10.80;63.00
10123;DHT22;5101;49.038;8.710;2024-01-27T15:11:17;10.80;63.70
10123;DHT22;5101;49.038;8.710;2024-01-27T15:13:43;10.70;64.90
10123;DHT22;5101;49.038;8.710;2024-01-27T15:16:09;10.50;66.70
10123;DHT22;5101;49.038;8.710;2024-01-27T15:18:34;10.40;70.00
10123;DHT22;5101;49.038;8.710;2024-01-27T15:21:02;10.30;71.90
10123;DHT22;5101;49.038;8.710;2024-01-27T15:23:28;10.20;72.10
10123;DHT22;5101;49.038;8.710;2024-01-27T15:25:54;10.20;72.20
10123;DHT22;5101;49.038;8.710;2024-01-27T15:28:20;10.10;72.40
10123;DHT22;5101;49.038;8.710;2024-01-27T15:30:45;10.10;72.90
10123;DHT22;5101;49.038;8.710;2024-01-27T15:33:14;10.00;73.80
10123;DHT22;5101;49.038;8.710;2024-01-27T15:35:40;9.90;75.30
10123;DHT22;5101;49.038;8.710;2024-01-27T15:38:06;9.90;75.60
10123;DHT22;5101;49.038;8.710;2024-01-27T15:40:31;9.70;75.70
10123;DHT22;5101;49.038;8.710;2024-01-27T15:42:58;9.60;76.10
10123;DHT22;5101;49.038;8.710;2024-01-27T15:45:23;9.60;76.20
10123;DHT22;5101;49.038;8.710;2024-01-27T15:47:49;9.40;76.80
10123;DHT22;5101;49.038;8.710;2024-01-27T15:50:15;9.30;77.30